Time;durP1;ratioP1;P1;durP2;ratioP2;P2;SDS_P1;SDS_P2;PMS_P1;PMS_P2;Temp;Humidity;BMP_temperature;BMP_pressure;BME280_temperature;BME280_humidity;BME280_pressure;Samples;Min_cycle;Max_cycle;Signal;HPM_P1;HPM_P2
2021/12/26 00:08:03;;;;;;;0.13;0.00;;;2.60;99.90;;;;;;21072293;28;20044;-48
2021/12/26 00:18:07;;;;;;;0.85;0.00;;;2.20;99.90;;;;;;21073029;28;20039;-49
2021/12/26 00:28:10;;;;;;;0.47;0.00;;;1.90;99.90;;;;;;21070874;28;20089;-50
2021/12/26 00:38:14;;;;;;;0.00;0.00;;;1.70;99.90;;;;;;21070028;28;20039;-49
2021/12/26 00:48:17;;;;;;;0.00;0.00;;;1.50;99.90;;;;;;21069084;28;20615;-49
2021/12/26 00:58:20;;;;;;;0.10;0.00;;;1.30;99.90;;;;;;21068522;28;20028;-49
2021/12/26 01:08:29;;;;;;;0.57;0.00;;;1.40;99.90;;;;;;21066472;28;20113;-53
2021/12/26 01:18:38;;;;;;;0.17;0.00;;;1.60;99.90;;;;;;21067161;28;20044;-49
2021/12/26 01:28:41;;;;;;;0.47;0.00;;;1.60;99.90;;;;;;21064992;28;20034;-49
2021/12/26 01:38:44;;;;;;;0.22;0.00;;;1.50;99.90;;;;;;21065973;28;20085;-51
2021/12/26 01:49:12;;;;;;;0.10;0.00;;;1.30;99.90;;;;;;21065673;28;20372;-49
2021/12/26 01:59:15;;;;;;;1.55;0.00;;;1.50;99.90;;;;;;21065486;28;20040;-49
2021/12/26 02:09:26;;;;;;;0.10;0.00;;;1.50;99.90;;;;;;21065467;28;20044;-50
2021/12/26 02:19:32;;;;;;;0.35;0.10;;;1.50;99.90;;;;;;21058943;28;20173;-49
2021/12/26 02:29:35;;;;;;;0.13;0.00;;;1.50;99.90;;;;;;21064771;28;20471;-49
2021/12/26 02:39:37;;;;;;;0.30;0.00;;;1.40;99.90;;;;;;21062814;28;20044;-48
2021/12/26 02:49:40;;;;;;;0.22;0.00;;;1.40;99.90;;;;;;21079268;28;20077;-49
2021/12/26 02:59:43;;;;;;;0.08;0.00;;;1.20;99.90;;;;;;21078044;28;20184;-51
2021/12/26 03:09:47;;;;;;;0.00;0.00;;;1.10;99.90;;;;;;21061318;28;20110;-49
2021/12/26 03:19:49;;;;;;;0.32;0.03;;;1.30;99.90;;;;;;21059615;28;20128;-48
2021/12/26 03:29:53;;;;;;;0.00;0.00;;;1.20;99.90;;;;;;21058051;28;20036;-48
2021/12/26 03:39:57;;;;;;;0.10;0.00;;;1.10;99.90;;;;;;21058131;28;20032;-49
2021/12/26 03:50:01;;;;;;;0.10;0.00;;;1.10;99.90;;;;;;21074022;28;20040;-49
2021/12/26 04:00:08;;;;;;;0.20;0.00;;;0.90;99.90;;;;;;21073106;28;20081;-47
2021/12/26 04:10:18;;;;;;;0.10;0.00;;;0.90;99.90;;;;;;21056974;28;20051;-48
2021/12/26 04:20:24;;;;;;;0.10;0.00;;;0.90;99.90;;;;;;21072042;28;20032;-48
2021/12/26 04:30:27;;;;;;;0.20;0.10;;;0.80;99.90;;;;;;21071508;28;20036;-51
2021/12/26 04:40:32;;;;;;;0.00;0.00;;;0.80;99.90;;;;;;21070044;28;20113;-49
2021/12/26 04:51:05;;;;;;;0.00;0.00;;;0.80;99.90;;;;;;21069605;28;20058;-48
2021/12/26 05:01:07;;;;;;;0.10;0.00;;;0.70;99.90;;;;;;21051877;28;20069;-51
2021/12/26 05:11:10;;;;;;;0.13;0.00;;;0.70;99.90;;;;;;21050849;28;20044;-49
2021/12/26 05:21:12;;;;;;;0.25;0.00;;;0.70;99.90;;;;;;21067118;28;20093;-48
2021/12/26 05:31:16;;;;;;;0.43;0.03;;;0.80;99.90;;;;;;21068314;28;20492;-49
2021/12/26 05:41:20;;;;;;;0.20;0.00;;;0.90;99.90;;;;;;21066344;28;20483;-48
2021/12/26 05:51:35;;;;;;;0.20;0.05;;;0.90;99.90;;;;;;21072087;28;20300;-47
2021/12/26 06:02:11;;;;;;;0.10;0.00;;;1.00;99.90;;;;;;20890228;28;20095;-48
2021/12/26 06:12:16;;;;;;;0.03;0.00;;;0.90;99.90;;;;;;20889399;28;20053;-50
2021/12/26 06:22:19;;;;;;;0.30;0.10;;;0.90;99.90;;;;;;20873026;28;20040;-50
2021/12/26 06:32:45;;;;;;;0.17;0.10;;;1.00;99.90;;;;;;20948006;28;20124;-50
2021/12/26 06:43:08;;;;;;;0.70;0.55;;;1.00;99.90;;;;;;21080613;28;20852;-48
2021/12/26 06:53:29;;;;;;;0.35;0.10;;;1.00;99.90;;;;;;21078541;28;20483;-47
2021/12/26 07:03:31;;;;;;;0.80;0.10;;;1.00;99.90;;;;;;21078484;28;20081;-49
2021/12/26 07:13:35;;;;;;;0.85;0.10;;;1.00;99.90;;;;;;21077023;28;20060;-52
2021/12/26 07:23:39;;;;;;;0.00;0.00;;;1.00;99.90;;;;;;21059249;28;20053;-49
2021/12/26 07:33:49;;;;;;;1.25;0.10;;;1.10;99.90;;;;;;21075222;28;20085;-48
2021/12/26 07:43:54;;;;;;;0.17;0.10;;;1.20;99.90;;;;;;21074754;28;20116;-53
2021/12/26 07:54:35;;;;;;;0.57;0.20;;;1.40;99.90;;;;;;20898693;28;20041;-50
2021/12/26 08:05:10;;;;;;;0.63;0.10;;;1.60;99.90;;;;;;20716795;28;20096;-50
2021/12/26 08:15:28;;;;;;;0.38;0.10;;;1.90;99.90;;;;;;20715411;28;20149;-49
2021/12/26 08:25:31;;;;;;;0.20;0.00;;;2.10;99.90;;;;;;20861767;28;20582;-50
2021/12/26 08:35:35;;;;;;;0.10;0.10;;;2.40;99.90;;;;;;20942143;28;20044;-49
2021/12/26 08:45:38;;;;;;;0.20;0.10;;;2.80;99.90;;;;;;21069405;28;20040;-52
2021/12/26 08:55:41;;;;;;;0.05;0.00;;;3.10;99.90;;;;;;21051997;28;20050;-51
2021/12/26 09:05:44;;;;;;;0.10;0.03;;;3.20;99.90;;;;;;21067900;28;20089;-50
2021/12/26 09:15:47;;;;;;;0.20;0.20;;;3.30;99.90;;;;;;21068284;28;20052;-52
2021/12/26 09:25:49;;;;;;;0.20;0.10;;;3.50;99.90;;;;;;21065642;28;20028;-54
2021/12/26 09:35:52;;;;;;;0.10;0.00;;;3.80;99.90;;;;;;21065908;28;20093;-50
2021/12/26 09:45:55;;;;;;;0.13;0.00;;;4.20;99.90;;;;;;21065938;28;20032;-51
2021/12/26 09:55:58;;;;;;;0.20;0.03;;;4.60;99.90;;;;;;21049313;28;20081;-50
2021/12/26 10:06:12;;;;;;;0.03;0.00;;;4.90;99.90;;;;;;21065038;28;20036;-49
2021/12/26 10:16:18;;;;;;;0.20;0.00;;;5.30;99.90;;;;;;21065017;28;20054;-50
2021/12/26 10:26:26;;;;;;;0.60;0.15;;;6.10;99.90;;;;;;21065776;28;20036;-50
2021/12/26 10:36:28;;;;;;;0.10;0.00;;;7.10;99.90;;;;;;21068384;28;20044;-50
2021/12/26 10:46:31;;;;;;;0.00;0.00;;;8.20;99.90;;;;;;21062677;28;20089;-50
2021/12/26 10:56:35;;;;;;;0.75;0.10;;;9.20;99.90;;;;;;21078141;28;20054;-50
2021/12/26 11:06:57;;;;;;;0.17;0.10;;;10.00;99.90;;;;;;21077576;28;20109;-51
2021/12/26 11:17:00;;;;;;;0.45;0.22;;;10.70;99.90;;;;;;21076992;28;20388;-50
2021/12/26 11:27:04;;;;;;;0.52;0.30;;;10.60;99.90;;;;;;21075441;28;20032;-51
2021/12/26 11:37:08;;;;;;;0.30;0.20;;;9.80;99.90;;;;;;21075178;28;20032;-49
2021/12/26 11:47:58;;;;;;;1.65;0.25;;;9.50;99.90;;;;;;21056871;28;20475;-50
2021/12/26 11:58:55;;;;;;;0.15;0.10;;;9.40;99.90;;;;;;21073241;28;20035;-51
2021/12/26 12:08:58;;;;;;;0.20;0.00;;;9.70;99.90;;;;;;21072777;28;20117;-50
2021/12/26 12:19:10;;;;;;;0.60;0.30;;;9.60;99.90;;;;;;21055639;28;20491;-49
2021/12/26 12:29:41;;;;;;;0.90;0.70;;;8.90;99.90;;;;;;21054583;28;20073;-50
2021/12/26 12:40:07;;;;;;;2.00;1.13;;;9.00;99.90;;;;;;21053763;28;20101;-49
2021/12/26 12:50:10;;;;;;;1.40;0.70;;;9.30;99.90;;;;;;21069474;28;20049;-49
2021/12/26 13:00:25;;;;;;;0.95;0.20;;;9.40;99.90;;;;;;21068944;28;20438;-49
2021/12/26 13:10:28;;;;;;;0.45;0.30;;;9.20;99.90;;;;;;21068092;28;20066;-50
2021/12/26 13:20:32;;;;;;;1.45;0.80;;;9.00;99.90;;;;;;21067875;28;20445;-52
2021/12/26 13:30:39;;;;;;;1.63;0.98;;;8.60;99.90;;;;;;21067018;28;20035;-51
2021/12/26 13:40:46;;;;;;;2.60;1.67;;;8.10;99.90;;;;;;21065817;28;20380;-52
2021/12/26 13:50:48;;;;;;;3.03;1.88;;;7.60;99.90;;;;;;21066197;28;20105;-51
2021/12/26 14:00:55;;;;;;;2.63;1.92;;;7.60;99.90;;;;;;21065692;28;20028;-52
2021/12/26 14:11:01;;;;;;;3.20;2.28;;;7.40;99.90;;;;;;21068788;28;20515;-52
2021/12/26 14:21:16;;;;;;;4.03;2.60;;;7.00;99.90;;;;;;21081313;28;20061;-52
2021/12/26 14:31:31;;;;;;;4.22;2.50;;;6.60;99.90;;;;;;21065219;28;20036;-51
2021/12/26 14:41:38;;;;;;;3.70;2.30;;;6.30;99.90;;;;;;21081490;28;20464;-52
2021/12/26 14:51:43;;;;;;;3.47;1.92;;;5.90;99.90;;;;;;21079074;28;20048;-52
2021/12/26 15:01:45;;;;;;;4.18;2.10;;;5.60;99.90;;;;;;21078465;28;20036;-50
2021/12/26 15:11:47;;;;;;;3.88;2.03;;;5.40;99.90;;;;;;21077812;28;20100;-50
2021/12/26 15:22:02;;;;;;;3.92;2.20;;;4.90;99.90;;;;;;21075490;28;20040;-50
2021/12/26 15:32:15;;;;;;;3.92;2.30;;;4.50;99.90;;;;;;21077011;28;20043;-49
2021/12/26 15:42:18;;;;;;;4.32;2.83;;;4.10;99.90;;;;;;21075390;28;20101;-51
2021/12/26 15:52:20;;;;;;;4.63;2.17;;;3.80;99.90;;;;;;21074135;28;20036;-51
2021/12/26 16:02:22;;;;;;;3.13;2.00;;;3.60;99.90;;;;;;21073213;28;20624;-50
2021/12/26 16:12:25;;;;;;;6.55;3.30;;;3.60;99.90;;;;;;21073017;28;20396;-49
2021/12/26 16:22:27;;;;;;;3.47;1.92;;;3.60;99.90;;;;;;21071994;28;20077;-52
2021/12/26 16:32:31;;;;;;;2.95;1.48;;;3.60;99.90;;;;;;21071011;28;20062;-52
2021/12/26 16:42:33;;;;;;;2.28;1.17;;;3.60;99.90;;;;;;21070076;28;20129;-50
2021/12/26 16:52:36;;;;;;;1.30;0.60;;;3.70;99.90;;;;;;21069897;28;20036;-52
2021/12/26 17:02:38;;;;;;;1.17;0.50;;;3.70;99.90;;;;;;21069250;28;20032;-56
2021/12/26 17:12:41;;;;;;;0.65;0.30;;;3.70;99.90;;;;;;21051460;28;20093;-50
2021/12/26 17:22:44;;;;;;;1.27;0.47;;;3.70;99.90;;;;;;21067706;28;20061;-53
2021/12/26 17:32:52;;;;;;;1.15;0.45;;;3.70;99.90;;;;;;21050697;28;20040;-50
2021/12/26 17:42:57;;;;;;;0.90;0.47;;;3.70;99.90;;;;;;21067928;28;20052;-50
2021/12/26 17:53:00;;;;;;;0.85;0.40;;;3.70;99.90;;;;;;21065155;28;20039;-50
2021/12/26 18:03:03;;;;;;;1.77;0.55;;;3.60;99.90;;;;;;21065625;28;20036;-51
2021/12/26 18:13:07;;;;;;;0.70;0.38;;;3.60;99.90;;;;;;21065178;28;20128;-50
2021/12/26 18:23:11;;;;;;;0.75;0.30;;;3.60;99.90;;;;;;21065044;28;20066;-51
2021/12/26 18:33:14;;;;;;;0.70;0.40;;;3.60;99.90;;;;;;21064637;28;20424;-50
2021/12/26 18:43:17;;;;;;;0.77;0.50;;;3.60;99.90;;;;;;21065139;28;20081;-50
2021/12/26 18:53:21;;;;;;;1.27;0.57;;;3.50;99.90;;;;;;21064807;28;20094;-50
2021/12/26 19:03:28;;;;;;;2.30;0.43;;;3.50;99.90;;;;;;21059289;28;20069;-50
2021/12/26 19:13:35;;;;;;;0.68;0.35;;;3.50;99.90;;;;;;21077059;28;20040;-52
2021/12/26 19:23:38;;;;;;;0.85;0.40;;;3.40;99.90;;;;;;21076555;28;20047;-51
2021/12/26 19:33:45;;;;;;;1.27;0.60;;;3.30;99.90;;;;;;21076849;28;20029;-49
2021/12/26 19:43:52;;;;;;;0.40;0.20;;;3.30;99.90;;;;;;21075712;28;20040;-54
2021/12/26 19:53:55;;;;;;;1.20;0.60;;;3.40;99.90;;;;;;21057635;28;20040;-51
2021/12/26 20:03:59;;;;;;;1.30;0.50;;;3.40;99.90;;;;;;21073287;28;20109;-51
2021/12/26 20:14:02;;;;;;;0.50;0.30;;;3.30;99.90;;;;;;21072902;28;20074;-55
2021/12/26 20:24:05;;;;;;;0.47;0.20;;;3.40;99.90;;;;;;21071772;28;20036;-51
2021/12/26 20:34:10;;;;;;;1.20;0.40;;;3.30;99.90;;;;;;21070839;28;20084;-49
2021/12/26 20:44:12;;;;;;;3.33;1.92;;;3.30;99.90;;;;;;21070500;28;20040;-50
2021/12/26 20:54:16;;;;;;;2.33;1.40;;;3.40;99.90;;;;;;21069624;28;20036;-51
2021/12/26 21:04:18;;;;;;;1.63;1.00;;;3.40;99.90;;;;;;21068953;28;20035;-50
2021/12/26 21:14:21;;;;;;;1.40;0.82;;;3.30;99.90;;;;;;21068028;28;20048;-50
2021/12/26 21:24:26;;;;;;;2.55;1.50;;;3.20;99.90;;;;;;21067468;28;20040;-50
2021/12/26 21:34:31;;;;;;;3.25;1.90;;;3.30;99.90;;;;;;21066991;28;20032;-50
2021/12/26 21:44:35;;;;;;;2.30;1.60;;;3.40;99.90;;;;;;21066435;28;20032;-50
2021/12/26 21:54:37;;;;;;;3.38;2.28;;;3.40;99.90;;;;;;21065877;28;20032;-51
2021/12/26 22:04:41;;;;;;;3.90;2.35;;;3.40;99.90;;;;;;21065268;28;20036;-51
2021/12/26 22:14:44;;;;;;;4.10;2.20;;;3.40;99.90;;;;;;21064492;28;20052;-52
2021/12/26 22:24:49;;;;;;;3.80;2.30;;;3.50;99.90;;;;;;21064869;28;20430;-52
2021/12/26 22:34:53;;;;;;;3.40;2.13;;;3.50;99.90;;;;;;21072294;28;20111;-50
2021/12/26 22:44:55;;;;;;;4.88;2.63;;;3.50;99.90;;;;;;21080827;28;20036;-51
2021/12/26 22:54:58;;;;;;;4.13;2.25;;;3.50;99.90;;;;;;21079260;28;20097;-50
2021/12/26 23:05:00;;;;;;;3.95;2.38;;;3.40;99.90;;;;;;21078651;28;20105;-50
2021/12/26 23:15:03;;;;;;;5.50;3.38;;;3.40;99.90;;;;;;21077529;28;20044;-51
2021/12/26 23:25:06;;;;;;;4.78;2.85;;;3.40;99.90;;;;;;21077011;28;20031;-51
2021/12/26 23:35:10;;;;;;;5.30;2.72;;;3.30;99.90;;;;;;21076327;28;20545;-51
2021/12/26 23:45:16;;;;;;;5.65;3.30;;;3.20;99.90;;;;;;21074525;28;20044;-51
2021/12/26 23:55:19;;;;;;;4.68;2.38;;;3.00;99.90;;;;;;21057951;28;20057;-49
